sensor_id;sensor_type;location;lat;lon;timestamp;P1;durP1;ratioP1;P2;durP2;ratioP2
49730;SDS011;35622;52.008;5.426;2024-02-14T00:02:45;9.93;;;6.95;;
49730;SDS011;35622;52.008;5.426;2024-02-14T00:05:14;10.35;;;6.72;;
49730;SDS011;35622;52.008;5.426;2024-02-14T00:07:39;8.27;;;6.53;;
49730;SDS011;35622;52.008;5.426;2024-02-14T00:10:05;8.63;;;7.40;;
49730;SDS011;35622;52.008;5.426;2024-02-14T00:12:34;7.85;;;6.90;;
49730;SDS011;35622;52.008;5.426;2024-02-14T00:15:01;9.82;;;7.45;;
49730;SDS011;35622;52.008;5.426;2024-02-14T00:17:28;9.38;;;7.65;;
49730;SDS011;35622;52.008;5.426;2024-02-14T00:19:54;9.10;;;7.80;;
49730;SDS011;35622;52.008;5.426;2024-02-14T00:22:20;10.32;;;7.80;;
49730;SDS011;35622;52.008;5.426;2024-02-14T00:24:46;10.63;;;8.40;;
49730;SDS011;35622;52.008;5.426;2024-02-14T00:27:12;9.85;;;8.43;;
49730;SDS011;35622;52.008;5.426;2024-02-14T00:29:39;12.30;;;8.75;;
49730;SDS011;35622;52.008;5.426;2024-02-14T00:32:05;10.75;;;9.10;;
49730;SDS011;35622;52.008;5.426;2024-02-14T00:34:31;11.18;;;8.90;;
49730;SDS011;35622;52.008;5.426;2024-02-14T00:36:56;11.45;;;9.43;;
49730;SDS011;35622;52.008;5.426;2024-02-14T00:39:22;11.40;;;9.18;;
49730;SDS011;35622;52.008;5.426;2024-02-14T00:41:47;15.30;;;10.48;;
49730;SDS011;35622;52.008;5.426;2024-02-14T00:44:14;14.35;;;10.25;;
49730;SDS011;35622;52.008;5.426;2024-02-14T00:46:43;14.40;;;10.57;;
49730;SDS011;35622;52.008;5.426;2024-02-14T00:49:09;13.73;;;10.95;;
49730;SDS011;35622;52.008;5.426;2024-02-14T00:51:35;12.55;;;10.68;;
49730;SDS011;35622;52.008;5.426;2024-02-14T00:54:05;17.02;;;11.90;;
49730;SDS011;35622;52.008;5.426;2024-02-14T00:56:31;14.88;;;11.77;;
49730;SDS011;35622;52.008;5.426;2024-02-14T00:58:56;17.77;;;11.70;;
49730;SDS011;35622;52.008;5.426;2024-02-14T01:01:22;16.50;;;11.52;;
49730;SDS011;35622;52.008;5.426;2024-02-14T01:03:48;17.35;;;12.20;;
49730;SDS011;35622;52.008;5.426;2024-02-14T01:06:14;20.00;;;12.60;;
49730;SDS011;35622;52.008;5.426;2024-02-14T01:08:41;15.38;;;11.93;;
49730;SDS011;35622;52.008;5.426;2024-02-14T01:11:10;16.52;;;11.75;;
49730;SDS011;35622;52.008;5.426;2024-02-14T01:13:35;15.35;;;11.82;;
49730;SDS011;35622;52.008;5.426;2024-02-14T01:16:02;14.77;;;11.68;;
49730;SDS011;35622;52.008;5.426;2024-02-14T01:18:29;15.05;;;11.32;;
49730;SDS011;35622;52.008;5.426;2024-02-14T01:20:55;15.73;;;12.00;;
49730;SDS011;35622;52.008;5.426;2024-02-14T01:23:20;17.92;;;12.70;;
49730;SDS011;35622;52.008;5.426;2024-02-14T01:25:46;15.82;;;12.32;;
49730;SDS011;35622;52.008;5.426;2024-02-14T01:28:11;14.25;;;11.85;;
49730;SDS011;35622;52.008;5.426;2024-02-14T01:30:37;16.60;;;11.98;;
49730;SDS011;35622;52.008;5.426;2024-02-14T01:33:02;16.58;;;12.32;;
49730;SDS011;35622;52.008;5.426;2024-02-14T01:35:29;17.38;;;12.60;;
49730;SDS011;35622;52.008;5.426;2024-02-14T01:37:55;19.23;;;12.55;;
49730;SDS011;35622;52.008;5.426;2024-02-14T01:40:20;18.25;;;13.18;;
49730;SDS011;35622;52.008;5.426;2024-02-14T01:42:46;18.40;;;13.02;;
49730;SDS011;35622;52.008;5.426;2024-02-14T01:45:12;19.08;;;13.40;;
49730;SDS011;35622;52.008;5.426;2024-02-14T01:47:38;18.42;;;13.35;;
49730;SDS011;35622;52.008;5.426;2024-02-14T01:50:07;17.80;;;14.38;;
49730;SDS011;35622;52.008;5.426;2024-02-14T01:52:34;19.55;;;14.90;;
49730;SDS011;35622;52.008;5.426;2024-02-14T01:55:00;20.00;;;14.38;;
49730;SDS011;35622;52.008;5.426;2024-02-14T01:57:28;18.70;;;13.55;;
49730;SDS011;35622;52.008;5.426;2024-02-14T01:59:53;20.35;;;14.60;;
49730;SDS011;35622;52.008;5.426;2024-02-14T02:02:21;17.45;;;13.98;;
49730;SDS011;35622;52.008;5.426;2024-02-14T02:04:47;19.23;;;14.02;;
49730;SDS011;35622;52.008;5.426;2024-02-14T02:07:12;22.42;;;14.15;;
49730;SDS011;35622;52.008;5.426;2024-02-14T02:09:38;20.58;;;15.00;;
49730;SDS011;35622;52.008;5.426;2024-02-14T02:12:04;22.60;;;15.05;;
49730;SDS011;35622;52.008;5.426;2024-02-14T02:14:32;21.98;;;14.90;;
49730;SDS011;35622;52.008;5.426;2024-02-14T02:16:58;21.17;;;14.48;;
49730;SDS011;35622;52.008;5.426;2024-02-14T02:19:24;23.55;;;15.55;;
49730;SDS011;35622;52.008;5.426;2024-02-14T02:21:50;21.30;;;15.23;;
49730;SDS011;35622;52.008;5.426;2024-02-14T02:24:17;21.85;;;14.98;;
49730;SDS011;35622;52.008;5.426;2024-02-14T02:26:43;21.27;;;14.90;;
49730;SDS011;35622;52.008;5.426;2024-02-14T02:29:09;22.30;;;15.60;;
49730;SDS011;35622;52.008;5.426;2024-02-14T02:31:35;21.88;;;14.60;;
49730;SDS011;35622;52.008;5.426;2024-02-14T02:34:01;20.42;;;15.20;;
49730;SDS011;35622;52.008;5.426;2024-02-14T02:36:27;20.50;;;15.50;;
49730;SDS011;35622;52.008;5.426;2024-02-14T02:38:55;23.15;;;15.30;;
49730;SDS011;35622;52.008;5.426;2024-02-14T02:41:21;19.27;;;15.60;;
49730;SDS011;35622;52.008;5.426;2024-02-14T02:43:47;21.90;;;15.98;;
49730;SDS011;35622;52.008;5.426;2024-02-14T02:46:14;20.70;;;15.35;;
49730;SDS011;35622;52.008;5.426;2024-02-14T02:48:40;19.60;;;15.35;;
49730;SDS011;35622;52.008;5.426;2024-02-14T02:51:06;23.92;;;15.57;;
49730;SDS011;35622;52.008;5.426;2024-02-14T02:53:31;21.13;;;15.65;;
49730;SDS011;35622;52.008;5.426;2024-02-14T02:55:57;22.95;;;15.55;;
49730;SDS011;35622;52.008;5.426;2024-02-14T02:58:24;23.20;;;15.73;;
49730;SDS011;35622;52.008;5.426;2024-02-14T03:00:51;24.40;;;15.20;;
49730;SDS011;35622;52.008;5.426;2024-02-14T03:03:20;20.98;;;15.75;;
49730;SDS011;35622;52.008;5.426;2024-02-14T03:05:46;19.33;;;14.40;;
49730;SDS011;35622;52.008;5.426;2024-02-14T03:08:12;21.55;;;15.82;;
49730;SDS011;35622;52.008;5.426;2024-02-14T03:10:40;22.20;;;16.35;;
49730;SDS011;35622;52.008;5.426;2024-02-14T03:13:06;21.98;;;16.08;;
49730;SDS011;35622;52.008;5.426;2024-02-14T03:15:37;22.67;;;16.00;;
49730;SDS011;35622;52.008;5.426;2024-02-14T03:18:03;23.58;;;15.45;;
49730;SDS011;35622;52.008;5.426;2024-02-14T03:20:34;22.92;;;16.33;;
49730;SDS011;35622;52.008;5.426;2024-02-14T03:23:00;23.45;;;16.17;;
49730;SDS011;35622;52.008;5.426;2024-02-14T03:25:28;22.65;;;17.30;;
49730;SDS011;35622;52.008;5.426;2024-02-14T03:27:54;25.73;;;18.25;;
49730;SDS011;35622;52.008;5.426;2024-02-14T03:30:22;24.83;;;17.80;;
49730;SDS011;35622;52.008;5.426;2024-02-14T03:32:47;27.73;;;19.15;;
49730;SDS011;35622;52.008;5.426;2024-02-14T03:35:17;28.83;;;19.27;;
49730;SDS011;35622;52.008;5.426;2024-02-14T03:37:45;27.42;;;19.63;;
49730;SDS011;35622;52.008;5.426;2024-02-14T03:40:17;33.70;;;20.40;;
49730;SDS011;35622;52.008;5.426;2024-02-14T03:42:42;31.85;;;20.83;;
49730;SDS011;35622;52.008;5.426;2024-02-14T03:45:09;33.00;;;20.27;;
49730;SDS011;35622;52.008;5.426;2024-02-14T03:47:35;34.40;;;21.92;;
49730;SDS011;35622;52.008;5.426;2024-02-14T03:50:01;32.20;;;21.60;;
49730;SDS011;35622;52.008;5.426;2024-02-14T03:52:29;33.60;;;20.65;;
49730;SDS011;35622;52.008;5.426;2024-02-14T03:54:57;35.60;;;21.10;;
49730;SDS011;35622;52.008;5.426;2024-02-14T03:57:23;31.75;;;20.40;;
49730;SDS011;35622;52.008;5.426;2024-02-14T03:59:50;31.48;;;20.42;;
49730;SDS011;35622;52.008;5.426;2024-02-14T04:02:17;31.67;;;19.80;;
49730;SDS011;35622;52.008;5.426;2024-02-14T04:04:43;30.52;;;20.88;;
49730;SDS011;35622;52.008;5.426;2024-02-14T04:07:11;32.58;;;19.67;;
49730;SDS011;35622;52.008;5.426;2024-02-14T04:09:37;32.22;;;20.70;;
49730;SDS011;35622;52.008;5.426;2024-02-14T04:12:03;36.55;;;21.38;;
49730;SDS011;35622;52.008;5.426;2024-02-14T04:14:29;35.53;;;21.67;;
49730;SDS011;35622;52.008;5.426;2024-02-14T04:16:54;36.03;;;21.20;;
49730;SDS011;35622;52.008;5.426;2024-02-14T04:19:20;35.75;;;21.33;;
49730;SDS011;35622;52.008;5.426;2024-02-14T04:21:46;33.72;;;21.38;;
49730;SDS011;35622;52.008;5.426;2024-02-14T04:24:12;36.63;;;21.60;;
49730;SDS011;35622;52.008;5.426;2024-02-14T04:26:37;33.38;;;21.63;;
49730;SDS011;35622;52.008;5.426;2024-02-14T04:29:04;37.67;;;21.60;;
49730;SDS011;35622;52.008;5.426;2024-02-14T04:31:29;33.70;;;20.67;;
49730;SDS011;35622;52.008;5.426;2024-02-14T04:33:56;37.20;;;21.58;;
49730;SDS011;35622;52.008;5.426;2024-02-14T04:36:22;33.63;;;19.98;;
49730;SDS011;35622;52.008;5.426;2024-02-14T04:38:48;33.22;;;19.50;;
49730;SDS011;35622;52.008;5.426;2024-02-14T04:41:14;31.33;;;20.13;;
49730;SDS011;35622;52.008;5.426;2024-02-14T04:43:40;32.67;;;19.52;;
49730;SDS011;35622;52.008;5.426;2024-02-14T04:46:06;31.58;;;20.20;;
49730;SDS011;35622;52.008;5.426;2024-02-14T04:48:33;35.25;;;20.85;;
49730;SDS011;35622;52.008;5.426;2024-02-14T04:50:58;38.50;;;21.42;;
49730;SDS011;35622;52.008;5.426;2024-02-14T04:53:24;34.78;;;21.15;;
49730;SDS011;35622;52.008;5.426;2024-02-14T04:55:49;31.83;;;19.67;;
49730;SDS011;35622;52.008;5.426;2024-02-14T04:58:15;30.02;;;20.33;;
49730;SDS011;35622;52.008;5.426;2024-02-14T05:00:41;32.30;;;20.67;;
49730;SDS011;35622;52.008;5.426;2024-02-14T05:03:07;32.95;;;20.13;;
49730;SDS011;35622;52.008;5.426;2024-02-14T05:05:35;34.75;;;20.65;;
49730;SDS011;35622;52.008;5.426;2024-02-14T05:08:01;31.92;;;20.38;;
49730;SDS011;35622;52.008;5.426;2024-02-14T05:10:27;33.05;;;20.98;;
49730;SDS011;35622;52.008;5.426;2024-02-14T05:12:53;35.22;;;20.30;;
49730;SDS011;35622;52.008;5.426;2024-02-14T05:15:19;34.15;;;20.42;;
49730;SDS011;35622;52.008;5.426;2024-02-14T05:17:45;31.70;;;20.42;;
49730;SDS011;35622;52.008;5.426;2024-02-14T05:20:11;33.72;;;21.55;;
49730;SDS011;35622;52.008;5.426;2024-02-14T05:22:37;30.98;;;20.58;;
49730;SDS011;35622;52.008;5.426;2024-02-14T05:25:03;33.13;;;21.17;;
49730;SDS011;35622;52.008;5.426;2024-02-14T05:27:30;36.50;;;21.58;;
49730;SDS011;35622;52.008;5.426;2024-02-14T05:29:56;30.95;;;21.45;;
49730;SDS011;35622;52.008;5.426;2024-02-14T05:32:22;31.15;;;19.83;;
49730;SDS011;35622;52.008;5.426;2024-02-14T05:34:48;32.65;;;21.98;;
49730;SDS011;35622;52.008;5.426;2024-02-14T05:37:15;35.95;;;20.85;;
49730;SDS011;35622;52.008;5.426;2024-02-14T05:39:41;37.90;;;21.88;;
49730;SDS011;35622;52.008;5.426;2024-02-14T05:42:07;37.60;;;21.92;;
49730;SDS011;35622;52.008;5.426;2024-02-14T05:44:32;34.83;;;22.60;;
49730;SDS011;35622;52.008;5.426;2024-02-14T05:46:58;31.90;;;21.45;;
49730;SDS011;35622;52.008;5.426;2024-02-14T05:49:23;31.33;;;21.45;;
49730;SDS011;35622;52.008;5.426;2024-02-14T05:51:49;34.63;;;20.85;;
49730;SDS011;35622;52.008;5.426;2024-02-14T05:54:17;33.67;;;22.63;;
49730;SDS011;35622;52.008;5.426;2024-02-14T05:56:43;36.30;;;22.48;;
49730;SDS011;35622;52.008;5.426;2024-02-14T05:59:09;39.88;;;21.40;;
49730;SDS011;35622;52.008;5.426;2024-02-14T06:01:35;33.70;;;22.27;;
49730;SDS011;35622;52.008;5.426;2024-02-14T06:04:01;35.50;;;21.88;;
49730;SDS011;35622;52.008;5.426;2024-02-14T06:06:26;33.65;;;22.10;;
49730;SDS011;35622;52.008;5.426;2024-02-14T06:08:52;31.95;;;21.55;;
49730;SDS011;35622;52.008;5.426;2024-02-14T06:11:17;35.78;;;21.60;;
49730;SDS011;35622;52.008;5.426;2024-02-14T06:13:46;37.30;;;22.02;;
49730;SDS011;35622;52.008;5.426;2024-02-14T06:16:12;35.78;;;21.75;;
49730;SDS011;35622;52.008;5.426;2024-02-14T06:18:38;31.08;;;21.10;;
49730;SDS011;35622;52.008;5.426;2024-02-14T06:21:04;29.67;;;20.08;;
49730;SDS011;35622;52.008;5.426;2024-02-14T06:23:30;31.83;;;21.95;;
49730;SDS011;35622;52.008;5.426;2024-02-14T06:25:56;35.20;;;21.73;;
49730;SDS011;35622;52.008;5.426;2024-02-14T06:28:23;34.65;;;21.83;;
49730;SDS011;35622;52.008;5.426;2024-02-14T06:30:49;34.25;;;22.38;;
49730;SDS011;35622;52.008;5.426;2024-02-14T06:33:14;34.85;;;23.17;;
49730;SDS011;35622;52.008;5.426;2024-02-14T06:35:40;36.70;;;21.88;;
49730;SDS011;35622;52.008;5.426;2024-02-14T06:38:06;36.58;;;22.60;;
49730;SDS011;35622;52.008;5.426;2024-02-14T06:40:32;34.33;;;22.15;;
49730;SDS011;35622;52.008;5.426;2024-02-14T06:42:58;33.17;;;22.13;;
49730;SDS011;35622;52.008;5.426;2024-02-14T06:45:25;34.97;;;22.52;;
49730;SDS011;35622;52.008;5.426;2024-02-14T06:47:52;35.30;;;23.20;;
49730;SDS011;35622;52.008;5.426;2024-02-14T06:50:18;35.90;;;23.73;;
49730;SDS011;35622;52.008;5.426;2024-02-14T06:52:43;38.95;;;23.35;;
49730;SDS011;35622;52.008;5.426;2024-02-14T06:55:09;36.40;;;23.73;;
49730;SDS011;35622;52.008;5.426;2024-02-14T06:57:35;35.50;;;23.08;;
49730;SDS011;35622;52.008;5.426;2024-02-14T07:00:00;36.08;;;23.15;;
49730;SDS011;35622;52.008;5.426;2024-02-14T07:02:26;37.35;;;22.58;;
49730;SDS011;35622;52.008;5.426;2024-02-14T07:04:53;38.20;;;23.23;;
49730;SDS011;35622;52.008;5.426;2024-02-14T07:07:19;37.03;;;23.95;;
49730;SDS011;35622;52.008;5.426;2024-02-14T07:09:45;36.42;;;23.95;;
49730;SDS011;35622;52.008;5.426;2024-02-14T07:12:11;36.72;;;22.23;;
49730;SDS011;35622;52.008;5.426;2024-02-14T07:14:36;39.20;;;24.27;;
49730;SDS011;35622;52.008;5.426;2024-02-14T07:17:02;37.30;;;23.15;;
49730;SDS011;35622;52.008;5.426;2024-02-14T07:19:28;38.83;;;23.63;;
49730;SDS011;35622;52.008;5.426;2024-02-14T07:21:53;39.13;;;23.08;;
49730;SDS011;35622;52.008;5.426;2024-02-14T07:24:19;35.17;;;23.15;;
49730;SDS011;35622;52.008;5.426;2024-02-14T07:26:45;38.60;;;22.58;;
49730;SDS011;35622;52.008;5.426;2024-02-14T07:29:10;43.17;;;24.25;;
49730;SDS011;35622;52.008;5.426;2024-02-14T07:31:36;39.28;;;23.90;;
49730;SDS011;35622;52.008;5.426;2024-02-14T07:34:02;40.58;;;23.63;;
49730;SDS011;35622;52.008;5.426;2024-02-14T07:36:28;38.53;;;23.77;;
49730;SDS011;35622;52.008;5.426;2024-02-14T07:38:54;43.50;;;24.13;;
49730;SDS011;35622;52.008;5.426;2024-02-14T07:41:20;38.60;;;24.95;;
49730;SDS011;35622;52.008;5.426;2024-02-14T07:43:45;38.67;;;24.75;;
49730;SDS011;35622;52.008;5.426;2024-02-14T07:46:15;40.92;;;24.40;;
49730;SDS011;35622;52.008;5.426;2024-02-14T07:48:43;36.20;;;24.00;;
49730;SDS011;35622;52.008;5.426;2024-02-14T07:51:09;42.67;;;24.80;;
49730;SDS011;35622;52.008;5.426;2024-02-14T07:53:34;39.53;;;23.50;;
49730;SDS011;35622;52.008;5.426;2024-02-14T07:56:00;39.03;;;24.73;;
49730;SDS011;35622;52.008;5.426;2024-02-14T07:58:26;40.58;;;25.55;;
49730;SDS011;35622;52.008;5.426;2024-02-14T08:00:51;40.83;;;26.08;;
49730;SDS011;35622;52.008;5.426;2024-02-14T08:03:17;41.00;;;26.10;;
49730;SDS011;35622;52.008;5.426;2024-02-14T08:05:43;38.42;;;24.13;;
49730;SDS011;35622;52.008;5.426;2024-02-14T08:08:08;36.03;;;23.63;;
49730;SDS011;35622;52.008;5.426;2024-02-14T08:10:34;40.78;;;24.52;;
49730;SDS011;35622;52.008;5.426;2024-02-14T08:12:59;38.03;;;23.77;;
49730;SDS011;35622;52.008;5.426;2024-02-14T08:15:25;37.28;;;23.90;;
49730;SDS011;35622;52.008;5.426;2024-02-14T08:17:50;39.10;;;24.60;;
49730;SDS011;35622;52.008;5.426;2024-02-14T08:20:20;39.20;;;23.80;;
49730;SDS011;35622;52.008;5.426;2024-02-14T08:22:46;39.35;;;24.38;;
49730;SDS011;35622;52.008;5.426;2024-02-14T08:25:11;37.50;;;23.55;;
49730;SDS011;35622;52.008;5.426;2024-02-14T08:27:37;40.38;;;24.25;;
49730;SDS011;35622;52.008;5.426;2024-02-14T08:30:02;37.42;;;24.00;;
49730;SDS011;35622;52.008;5.426;2024-02-14T08:32:31;39.65;;;24.80;;
49730;SDS011;35622;52.008;5.426;2024-02-14T08:34:58;40.15;;;24.45;;
49730;SDS011;35622;52.008;5.426;2024-02-14T08:37:23;40.78;;;24.80;;
49730;SDS011;35622;52.008;5.426;2024-02-14T08:39:50;49.40;;;27.00;;
49730;SDS011;35622;52.008;5.426;2024-02-14T08:42:15;39.28;;;24.10;;
49730;SDS011;35622;52.008;5.426;2024-02-14T08:44:41;43.67;;;25.45;;
49730;SDS011;35622;52.008;5.426;2024-02-14T08:47:07;40.03;;;24.30;;
49730;SDS011;35622;52.008;5.426;2024-02-14T08:49:32;42.67;;;24.42;;
49730;SDS011;35622;52.008;5.426;2024-02-14T08:51:58;39.10;;;23.58;;
49730;SDS011;35622;52.008;5.426;2024-02-14T08:54:24;37.88;;;23.65;;
49730;SDS011;35622;52.008;5.426;2024-02-14T08:56:50;36.00;;;22.40;;
49730;SDS011;35622;52.008;5.426;2024-02-14T08:59:18;35.65;;;22.83;;
49730;SDS011;35622;52.008;5.426;2024-02-14T09:01:44;35.60;;;22.85;;
49730;SDS011;35622;52.008;5.426;2024-02-14T09:04:10;37.13;;;23.17;;
49730;SDS011;35622;52.008;5.426;2024-02-14T09:06:36;33.95;;;21.98;;
49730;SDS011;35622;52.008;5.426;2024-02-14T09:09:04;31.73;;;21.40;;
49730;SDS011;35622;52.008;5.426;2024-02-14T09:11:29;31.45;;;21.13;;
49730;SDS011;35622;52.008;5.426;2024-02-14T09:13:56;30.58;;;20.13;;
49730;SDS011;35622;52.008;5.426;2024-02-14T09:16:27;28.58;;;19.83;;
49730;SDS011;35622;52.008;5.426;2024-02-14T09:18:53;30.73;;;20.02;;
49730;SDS011;35622;52.008;5.426;2024-02-14T09:21:18;31.38;;;20.30;;
49730;SDS011;35622;52.008;5.426;2024-02-14T09:23:46;27.60;;;18.85;;
49730;SDS011;35622;52.008;5.426;2024-02-14T09:26:12;32.00;;;20.52;;
49730;SDS011;35622;52.008;5.426;2024-02-14T09:28:40;32.25;;;20.05;;
49730;SDS011;35622;52.008;5.426;2024-02-14T09:31:05;28.45;;;20.15;;
49730;SDS011;35622;52.008;5.426;2024-02-14T09:33:31;30.58;;;20.00;;
49730;SDS011;35622;52.008;5.426;2024-02-14T09:35:57;29.50;;;20.10;;
49730;SDS011;35622;52.008;5.426;2024-02-14T09:38:22;32.85;;;20.85;;
49730;SDS011;35622;52.008;5.426;2024-02-14T09:40:52;32.17;;;22.02;;
49730;SDS011;35622;52.008;5.426;2024-02-14T09:45:53;35.67;;;22.02;;
49730;SDS011;35622;52.008;5.426;2024-02-14T09:48:19;37.63;;;22.90;;
49730;SDS011;35622;52.008;5.426;2024-02-14T09:50:46;38.10;;;23.08;;
49730;SDS011;35622;52.008;5.426;2024-02-14T09:53:14;38.53;;;24.23;;
49730;SDS011;35622;52.008;5.426;2024-02-14T09:55:40;35.35;;;23.15;;
49730;SDS011;35622;52.008;5.426;2024-02-14T09:58:07;37.83;;;23.13;;
49730;SDS011;35622;52.008;5.426;2024-02-14T10:00:33;36.58;;;23.27;;
49730;SDS011;35622;52.008;5.426;2024-02-14T10:02:59;36.47;;;22.50;;
49730;SDS011;35622;52.008;5.426;2024-02-14T10:05:28;32.38;;;22.77;;
49730;SDS011;35622;52.008;5.426;2024-02-14T10:07:56;36.60;;;22.85;;
49730;SDS011;35622;52.008;5.426;2024-02-14T10:10:22;37.47;;;22.25;;
49730;SDS011;35622;52.008;5.426;2024-02-14T10:12:49;34.35;;;23.42;;
49730;SDS011;35622;52.008;5.426;2024-02-14T10:15:15;36.35;;;22.40;;
49730;SDS011;35622;52.008;5.426;2024-02-14T10:17:40;32.78;;;22.17;;
49730;SDS011;35622;52.008;5.426;2024-02-14T10:20:06;32.67;;;21.58;;
49730;SDS011;35622;52.008;5.426;2024-02-14T10:22:35;32.40;;;22.13;;
49730;SDS011;35622;52.008;5.426;2024-02-14T10:25:02;30.85;;;21.50;;
49730;SDS011;35622;52.008;5.426;2024-02-14T10:27:39;32.50;;;21.73;;
49730;SDS011;35622;52.008;5.426;2024-02-14T10:30:08;33.78;;;21.00;;
49730;SDS011;35622;52.008;5.426;2024-02-14T10:32:39;31.73;;;21.92;;
49730;SDS011;35622;52.008;5.426;2024-02-14T10:35:12;33.28;;;21.83;;
49730;SDS011;35622;52.008;5.426;2024-02-14T10:37:39;31.38;;;20.85;;
49730;SDS011;35622;52.008;5.426;2024-02-14T10:40:04;28.58;;;20.80;;
49730;SDS011;35622;52.008;5.426;2024-02-14T10:42:31;29.27;;;20.40;;
49730;SDS011;35622;52.008;5.426;2024-02-14T10:44:57;31.38;;;20.30;;
49730;SDS011;35622;52.008;5.426;2024-02-14T10:47:24;29.27;;;19.40;;
49730;SDS011;35622;52.008;5.426;2024-02-14T10:50:00;33.25;;;19.85;;
49730;SDS011;35622;52.008;5.426;2024-02-14T10:52:30;31.30;;;19.65;;
49730;SDS011;35622;52.008;5.426;2024-02-14T10:55:01;27.52;;;19.70;;
49730;SDS011;35622;52.008;5.426;2024-02-14T10:57:28;26.13;;;19.80;;
49730;SDS011;35622;52.008;5.426;2024-02-14T10:59:54;26.92;;;18.13;;
49730;SDS011;35622;52.008;5.426;2024-02-14T11:02:22;25.50;;;17.67;;
49730;SDS011;35622;52.008;5.426;2024-02-14T11:04:49;27.23;;;17.77;;
49730;SDS011;35622;52.008;5.426;2024-02-14T11:07:19;25.60;;;18.83;;
49730;SDS011;35622;52.008;5.426;2024-02-14T11:09:47;24.95;;;17.23;;
49730;SDS011;35622;52.008;5.426;2024-02-14T11:12:13;26.08;;;17.40;;
49730;SDS011;35622;52.008;5.426;2024-02-14T11:14:42;23.77;;;17.75;;
49730;SDS011;35622;52.008;5.426;2024-02-14T11:17:09;22.58;;;17.33;;
49730;SDS011;35622;52.008;5.426;2024-02-14T11:19:35;23.45;;;18.08;;
49730;SDS011;35622;52.008;5.426;2024-02-14T11:22:11;25.90;;;17.75;;
49730;SDS011;35622;52.008;5.426;2024-02-14T11:24:40;23.65;;;17.67;;
49730;SDS011;35622;52.008;5.426;2024-02-14T11:27:09;24.40;;;17.45;;
49730;SDS011;35622;52.008;5.426;2024-02-14T11:29:38;23.45;;;16.25;;
49730;SDS011;35622;52.008;5.426;2024-02-14T11:32:16;23.20;;;16.05;;
49730;SDS011;35622;52.008;5.426;2024-02-14T11:34:43;21.00;;;15.82;;
49730;SDS011;35622;52.008;5.426;2024-02-14T11:37:27;21.60;;;15.00;;
49730;SDS011;35622;52.008;5.426;2024-02-14T11:39:53;24.30;;;15.70;;
49730;SDS011;35622;52.008;5.426;2024-02-14T11:42:21;21.58;;;14.52;;
49730;SDS011;35622;52.008;5.426;2024-02-14T11:44:47;19.35;;;13.95;;
49730;SDS011;35622;52.008;5.426;2024-02-14T11:47:12;19.35;;;13.23;;
49730;SDS011;35622;52.008;5.426;2024-02-14T11:49:38;18.52;;;13.20;;
49730;SDS011;35622;52.008;5.426;2024-02-14T11:52:05;18.85;;;13.20;;
49730;SDS011;35622;52.008;5.426;2024-02-14T11:54:34;19.52;;;12.82;;
49730;SDS011;35622;52.008;5.426;2024-02-14T11:57:00;18.70;;;12.48;;
49730;SDS011;35622;52.008;5.426;2024-02-14T11:59:25;19.40;;;12.88;;
49730;SDS011;35622;52.008;5.426;2024-02-14T12:01:51;17.38;;;12.15;;
49730;SDS011;35622;52.008;5.426;2024-02-14T12:04:18;20.75;;;12.35;;
49730;SDS011;35622;52.008;5.426;2024-02-14T12:06:45;18.30;;;12.68;;
49730;SDS011;35622;52.008;5.426;2024-02-14T12:09:11;15.25;;;11.70;;
49730;SDS011;35622;52.008;5.426;2024-02-14T12:11:38;16.30;;;11.85;;
49730;SDS011;35622;52.008;5.426;2024-02-14T12:14:09;17.75;;;11.98;;
49730;SDS011;35622;52.008;5.426;2024-02-14T12:16:38;15.93;;;11.73;;
49730;SDS011;35622;52.008;5.426;2024-02-14T12:19:14;16.52;;;11.35;;
49730;SDS011;35622;52.008;5.426;2024-02-14T12:21:41;15.98;;;11.65;;
49730;SDS011;35622;52.008;5.426;2024-02-14T12:24:10;14.55;;;10.52;;
49730;SDS011;35622;52.008;5.426;2024-02-14T12:26:38;15.18;;;10.77;;
49730;SDS011;35622;52.008;5.426;2024-02-14T12:29:05;16.02;;;11.57;;
49730;SDS011;35622;52.008;5.426;2024-02-14T12:31:32;15.18;;;10.65;;
49730;SDS011;35622;52.008;5.426;2024-02-14T12:33:59;14.48;;;11.10;;
49730;SDS011;35622;52.008;5.426;2024-02-14T12:36:30;14.60;;;11.07;;
49730;SDS011;35622;52.008;5.426;2024-02-14T12:38:58;16.20;;;11.38;;
49730;SDS011;35622;52.008;5.426;2024-02-14T12:41:24;13.63;;;10.18;;
49730;SDS011;35622;52.008;5.426;2024-02-14T12:43:52;15.30;;;10.20;;
49730;SDS011;35622;52.008;5.426;2024-02-14T12:46:18;14.45;;;10.60;;
49730;SDS011;35622;52.008;5.426;2024-02-14T12:48:44;14.88;;;10.20;;
49730;SDS011;35622;52.008;5.426;2024-02-14T12:51:10;13.52;;;10.02;;
49730;SDS011;35622;52.008;5.426;2024-02-14T12:53:35;13.88;;;9.95;;
49730;SDS011;35622;52.008;5.426;2024-02-14T12:56:01;12.98;;;9.90;;
49730;SDS011;35622;52.008;5.426;2024-02-14T12:58:27;12.20;;;8.93;;
49730;SDS011;35622;52.008;5.426;2024-02-14T13:00:53;10.65;;;8.85;;
49730;SDS011;35622;52.008;5.426;2024-02-14T13:03:19;11.18;;;9.20;;
49730;SDS011;35622;52.008;5.426;2024-02-14T13:05:44;9.55;;;7.95;;
49730;SDS011;35622;52.008;5.426;2024-02-14T13:08:12;10.85;;;7.95;;
49730;SDS011;35622;52.008;5.426;2024-02-14T13:10:38;10.05;;;7.68;;
49730;SDS011;35622;52.008;5.426;2024-02-14T13:13:03;9.80;;;7.40;;
49730;SDS011;35622;52.008;5.426;2024-02-14T13:15:29;9.02;;;7.47;;
49730;SDS011;35622;52.008;5.426;2024-02-14T13:17:55;9.50;;;7.82;;
49730;SDS011;35622;52.008;5.426;2024-02-14T13:20:23;8.30;;;6.50;;
49730;SDS011;35622;52.008;5.426;2024-02-14T13:22:49;8.45;;;7.13;;
49730;SDS011;35622;52.008;5.426;2024-02-14T13:25:15;7.60;;;6.65;;
49730;SDS011;35622;52.008;5.426;2024-02-14T13:27:40;8.38;;;6.88;;
49730;SDS011;35622;52.008;5.426;2024-02-14T13:30:06;8.80;;;7.22;;
49730;SDS011;35622;52.008;5.426;2024-02-14T13:32:32;9.05;;;7.30;;
49730;SDS011;35622;52.008;5.426;2024-02-14T13:34:58;10.90;;;7.90;;
49730;SDS011;35622;52.008;5.426;2024-02-14T13:37:23;10.43;;;8.00;;
49730;SDS011;35622;52.008;5.426;2024-02-14T13:39:49;8.63;;;7.70;;
49730;SDS011;35622;52.008;5.426;2024-02-14T13:42:16;10.50;;;8.52;;
49730;SDS011;35622;52.008;5.426;2024-02-14T13:44:41;11.55;;;8.38;;
49730;SDS011;35622;52.008;5.426;2024-02-14T13:47:07;13.38;;;9.75;;
49730;SDS011;35622;52.008;5.426;2024-02-14T13:49:33;12.75;;;10.15;;
49730;SDS011;35622;52.008;5.426;2024-02-14T13:51:59;11.90;;;10.10;;
49730;SDS011;35622;52.008;5.426;2024-02-14T13:54:24;14.48;;;10.68;;
49730;SDS011;35622;52.008;5.426;2024-02-14T13:56:50;14.20;;;11.20;;
49730;SDS011;35622;52.008;5.426;2024-02-14T13:59:16;15.07;;;11.70;;
49730;SDS011;35622;52.008;5.426;2024-02-14T14:01:43;14.57;;;12.30;;
49730;SDS011;35622;52.008;5.426;2024-02-14T14:04:10;15.68;;;12.20;;
49730;SDS011;35622;52.008;5.426;2024-02-14T14:06:37;17.13;;;12.80;;
49730;SDS011;35622;52.008;5.426;2024-02-14T14:09:04;17.25;;;12.93;;
49730;SDS011;35622;52.008;5.426;2024-02-14T14:11:33;17.88;;;12.45;;
49730;SDS011;35622;52.008;5.426;2024-02-14T14:13:59;17.42;;;13.93;;
49730;SDS011;35622;52.008;5.426;2024-02-14T14:16:25;18.02;;;13.60;;
49730;SDS011;35622;52.008;5.426;2024-02-14T14:18:51;17.42;;;13.15;;
49730;SDS011;35622;52.008;5.426;2024-02-14T14:21:16;18.17;;;13.23;;
49730;SDS011;35622;52.008;5.426;2024-02-14T14:23:42;17.55;;;14.02;;